Time;durP1;ratioP1;P1;durP2;ratioP2;P2;SDS_P1;SDS_P2;PMS_P1;PMS_P2;Temp;Humidity;BMP_temperature;BMP_pressure;BME280_temperature;BME280_humidity;BME280_pressure;Samples;Min_cycle;Max_cycle;Signal;HPM_P1;HPM_P2
2022/01/21 00:01:11;;;;;;;12.95;4.25;;;0.70;99.90;;;;;;5008598;28;20394;-71
2022/01/21 00:03:37;;;;;;;20.73;9.23;;;0.70;99.90;;;;;;5010359;28;20080;-71
2022/01/21 00:06:06;;;;;;;14.50;4.97;;;0.70;99.90;;;;;;5011164;28;20029;-70
2022/01/21 00:08:33;;;;;;;9.23;4.07;;;0.60;99.90;;;;;;5010982;28;20121;-71
2022/01/21 00:10:59;;;;;;;11.63;4.45;;;0.60;99.90;;;;;;5002648;28;20022;-71
2022/01/21 00:13:33;;;;;;;13.30;4.78;;;0.60;99.90;;;;;;5016835;28;20037;-71
2022/01/21 00:16:08;;;;;;;8.18;3.92;;;0.60;99.90;;;;;;5005702;28;20485;-70
2022/01/21 00:18:37;;;;;;;12.55;6.50;;;0.60;99.90;;;;;;5003880;28;20033;-71
2022/01/21 00:32:02;;;;;;;9.73;3.65;;;0.60;99.90;;;;;;5026409;28;20088;-71
2022/01/21 00:34:28;;;;;;;7.63;3.25;;;0.60;99.90;;;;;;5007958;28;20032;-71
2022/01/21 00:36:54;;;;;;;12.20;3.83;;;0.60;99.90;;;;;;5022952;28;20017;-71
2022/01/21 00:39:25;;;;;;;7.15;3.15;;;0.70;99.90;;;;;;5006632;28;20445;-71
2022/01/21 00:42:05;;;;;;;11.00;3.35;;;0.70;99.90;;;;;;5022773;28;20036;-72
2022/01/21 00:44:31;;;;;;;9.65;3.55;;;0.70;99.90;;;;;;5014835;28;20162;-71
2022/01/21 00:46:57;;;;;;;9.95;3.33;;;0.70;99.90;;;;;;5037671;28;20029;-71
2022/01/21 00:49:22;;;;;;;12.63;3.88;;;0.70;99.90;;;;;;5017038;28;20033;-71
2022/01/21 00:51:48;;;;;;;10.10;3.72;;;0.70;99.90;;;;;;5020563;28;20484;-71
2022/01/21 00:54:14;;;;;;;6.88;3.08;;;0.70;99.90;;;;;;5005671;28;20416;-71
2022/01/21 00:56:40;;;;;;;8.90;3.70;;;0.70;99.90;;;;;;5006458;28;20048;-71
2022/01/21 00:59:06;;;;;;;7.32;3.42;;;0.60;99.90;;;;;;5016804;28;20060;-71
2022/01/21 01:01:32;;;;;;;8.07;3.47;;;0.60;99.90;;;;;;5013920;28;20555;-71
2022/01/21 01:03:58;;;;;;;7.40;3.40;;;0.70;99.90;;;;;;5020283;28;20084;-70
2022/01/21 01:06:24;;;;;;;15.27;3.95;;;0.70;99.90;;;;;;5011781;28;20029;-70
2022/01/21 01:08:52;;;;;;;9.65;3.55;;;0.70;99.90;;;;;;5011369;28;20049;-68
2022/01/21 01:11:28;;;;;;;6.28;3.22;;;0.70;99.90;;;;;;5023016;28;20021;-68
2022/01/21 01:22:47;;;;;;;15.38;3.13;;;0.60;99.90;;;;;;5028483;28;20041;-68
2022/01/21 01:27:58;;;;;;;8.95;3.20;;;0.70;99.90;;;;;;5021199;28;20533;-68
2022/01/21 01:30:27;;;;;;;13.70;3.50;;;0.70;99.90;;;;;;5028707;28;20038;-68
2022/01/21 01:32:57;;;;;;;11.88;3.30;;;0.60;99.90;;;;;;5012319;28;20017;-68
2022/01/21 01:35:24;;;;;;;10.20;3.67;;;0.60;99.90;;;;;;5030172;28;20017;-71
2022/01/21 01:50:42;;;;;;;7.20;3.38;;;0.60;99.90;;;;;;5022263;28;20060;-68
2022/01/21 01:53:09;;;;;;;10.95;3.20;;;0.60;99.90;;;;;;5013658;28;20021;-68
2022/01/21 01:55:36;;;;;;;8.60;3.30;;;0.60;99.90;;;;;;5026900;28;20031;-68
2022/01/21 01:58:03;;;;;;;10.15;3.15;;;0.60;99.90;;;;;;5007893;28;20105;-71
2022/01/21 02:00:29;;;;;;;8.85;3.15;;;0.50;99.90;;;;;;5003580;28;20030;-71
2022/01/21 02:02:54;;;;;;;10.40;3.50;;;0.50;99.90;;;;;;5009486;28;20022;-71
2022/01/21 02:05:20;;;;;;;11.32;3.50;;;0.50;99.90;;;;;;5002979;28;20053;-71
2022/01/21 02:07:46;;;;;;;10.85;3.80;;;0.60;99.90;;;;;;5010451;28;20075;-71
2022/01/21 02:10:12;;;;;;;10.70;3.40;;;0.50;99.90;;;;;;5022043;28;20033;-70
2022/01/21 02:12:41;;;;;;;6.95;3.08;;;0.50;99.90;;;;;;5016260;28;20026;-71
2022/01/21 02:15:07;;;;;;;11.00;3.70;;;0.50;99.90;;;;;;5015170;28;20025;-70
2022/01/21 02:22:47;;;;;;;10.00;3.17;;;0.50;99.90;;;;;;5020271;28;20508;-71
2022/01/21 02:25:18;;;;;;;6.97;3.25;;;0.60;99.90;;;;;;5012048;28;20565;-71
2022/01/21 02:27:49;;;;;;;9.52;3.30;;;0.60;99.90;;;;;;5002916;28;20029;-70
2022/01/21 02:30:19;;;;;;;6.47;2.97;;;0.60;99.90;;;;;;5009353;28;20052;-70
2022/01/21 02:32:55;;;;;;;7.72;3.28;;;0.60;99.90;;;;;;5023568;28;20029;-70
2022/01/21 02:35:23;;;;;;;9.25;3.53;;;0.60;99.90;;;;;;5011444;28;20025;-68
2022/01/21 02:37:50;;;;;;;11.88;3.63;;;0.60;99.90;;;;;;5007619;28;20029;-68
2022/01/21 02:40:17;;;;;;;12.15;3.20;;;0.60;99.90;;;;;;5012291;28;20063;-68
2022/01/21 02:42:43;;;;;;;10.55;3.50;;;0.60;99.90;;;;;;5025253;28;20029;-68
2022/01/21 02:45:11;;;;;;;9.32;3.05;;;0.60;99.90;;;;;;4997874;28;20113;-69
2022/01/21 02:47:36;;;;;;;12.38;2.85;;;0.60;99.90;;;;;;5012389;28;20071;-68
2022/01/21 02:50:04;;;;;;;9.30;3.30;;;0.60;99.90;;;;;;5012954;28;20029;-69
2022/01/21 02:52:39;;;;;;;12.25;3.40;;;0.60;99.90;;;;;;5016428;28;20026;-68
2022/01/21 02:55:06;;;;;;;15.43;3.55;;;0.60;99.90;;;;;;5003978;28;20108;-68
2022/01/21 02:57:32;;;;;;;7.13;3.05;;;0.60;99.90;;;;;;5000559;28;20026;-68
2022/01/21 02:59:57;;;;;;;10.68;3.40;;;0.60;99.90;;;;;;5025952;28;20563;-68
2022/01/21 03:02:23;;;;;;;9.85;3.00;;;0.60;99.90;;;;;;5028945;28;20040;-69
2022/01/21 03:05:01;;;;;;;9.15;3.95;;;0.70;99.90;;;;;;5012026;28;20026;-68
2022/01/21 03:07:27;;;;;;;8.20;3.20;;;0.60;99.90;;;;;;5015011;28;20030;-69
2022/01/21 03:09:52;;;;;;;8.80;3.38;;;0.60;99.90;;;;;;5008176;28;20040;-68
2022/01/21 03:12:18;;;;;;;9.23;3.20;;;0.70;99.90;;;;;;4998227;28;20110;-68
2022/01/21 03:14:44;;;;;;;9.95;3.67;;;0.70;99.90;;;;;;5010654;28;20059;-69
2022/01/21 03:17:09;;;;;;;10.88;3.30;;;0.70;99.90;;;;;;5006031;28;20080;-68
2022/01/21 03:19:35;;;;;;;9.27;3.25;;;0.70;99.90;;;;;;5018983;28;20410;-68
2022/01/21 03:22:02;;;;;;;7.55;2.97;;;0.70;99.90;;;;;;5011587;28;20025;-68
2022/01/21 03:24:28;;;;;;;8.73;3.05;;;0.70;99.90;;;;;;5007481;28;20116;-69
2022/01/21 03:26:53;;;;;;;7.82;3.17;;;0.70;99.90;;;;;;5008038;28;20151;-69
2022/01/21 03:29:19;;;;;;;10.25;3.50;;;0.70;99.90;;;;;;5007187;28;20030;-68
2022/01/21 03:31:45;;;;;;;9.57;3.30;;;0.70;99.90;;;;;;5028128;28;20029;-68
2022/01/21 03:34:11;;;;;;;13.10;3.63;;;0.70;99.90;;;;;;5025124;28;20029;-68
2022/01/21 03:36:38;;;;;;;12.75;3.50;;;0.70;99.90;;;;;;5011175;28;20477;-69
2022/01/21 03:39:04;;;;;;;10.75;3.22;;;0.70;99.90;;;;;;5025961;28;20186;-68
2022/01/21 03:41:30;;;;;;;8.77;3.50;;;0.70;99.90;;;;;;4994804;28;20112;-68
2022/01/21 03:43:56;;;;;;;9.93;3.58;;;0.70;99.90;;;;;;5031030;28;20095;-68
2022/01/21 03:46:21;;;;;;;9.40;3.03;;;0.70;99.90;;;;;;5010941;28;20042;-68
2022/01/21 03:48:49;;;;;;;10.77;3.67;;;0.70;99.90;;;;;;5024326;28;20034;-68
2022/01/21 03:51:17;;;;;;;7.00;3.72;;;0.70;99.90;;;;;;5007754;28;20458;-69
2022/01/21 03:53:44;;;;;;;9.07;3.15;;;0.70;99.90;;;;;;4993835;28;20029;-69
2022/01/21 03:56:09;;;;;;;6.70;3.30;;;0.70;99.90;;;;;;5008690;28;20033;-68
2022/01/21 03:58:35;;;;;;;15.40;3.58;;;0.70;99.90;;;;;;5011321;28;20036;-68
2022/01/21 04:01:01;;;;;;;8.25;3.67;;;0.70;99.90;;;;;;5025164;28;20136;-68
2022/01/21 04:03:27;;;;;;;11.98;3.53;;;0.70;99.90;;;;;;5018902;28;20030;-69
2022/01/21 04:05:53;;;;;;;7.82;3.50;;;0.70;99.90;;;;;;5027227;28;20456;-68
2022/01/21 04:08:19;;;;;;;10.32;3.95;;;0.70;99.90;;;;;;5029650;28;20493;-68
2022/01/21 04:10:48;;;;;;;10.80;3.50;;;0.60;99.90;;;;;;5026232;28;20500;-68
2022/01/21 04:13:16;;;;;;;13.38;3.72;;;0.60;99.90;;;;;;5009462;28;20045;-68
2022/01/21 04:15:47;;;;;;;10.68;3.50;;;0.60;99.90;;;;;;5028366;28;20120;-68
2022/01/21 04:18:13;;;;;;;9.07;3.53;;;0.50;99.90;;;;;;5009692;28;20026;-68
2022/01/21 04:20:41;;;;;;;11.70;3.80;;;0.50;99.90;;;;;;5030432;28;20053;-68
2022/01/21 04:23:07;;;;;;;12.82;3.78;;;0.50;99.90;;;;;;5002526;28;20037;-68
2022/01/21 04:25:33;;;;;;;13.68;3.78;;;0.50;99.90;;;;;;5023618;28;20048;-69
2022/01/21 04:27:59;;;;;;;8.45;3.47;;;0.50;99.90;;;;;;5009386;28;20513;-69
2022/01/21 04:30:24;;;;;;;11.15;3.85;;;0.40;99.90;;;;;;4997243;28;20037;-68
2022/01/21 04:32:50;;;;;;;8.02;3.92;;;0.40;99.90;;;;;;5001318;28;20354;-68
2022/01/21 04:35:16;;;;;;;11.90;4.25;;;0.40;99.90;;;;;;5020539;28;20028;-68
2022/01/21 04:37:50;;;;;;;8.60;3.60;;;0.40;99.90;;;;;;5025332;28;20491;-68
2022/01/21 04:40:18;;;;;;;9.73;3.35;;;0.30;99.90;;;;;;5013654;28;20029;-68
2022/01/21 04:48:12;;;;;;;7.55;3.47;;;0.30;99.90;;;;;;5019976;28;20117;-68
2022/01/21 04:50:41;;;;;;;9.60;3.80;;;0.20;99.90;;;;;;5018064;28;20108;-69
2022/01/21 04:53:08;;;;;;;12.45;3.90;;;0.20;99.90;;;;;;5029389;28;20057;-69
2022/01/21 04:55:35;;;;;;;11.35;3.92;;;0.20;99.90;;;;;;5009793;28;20022;-69
2022/01/21 04:58:01;;;;;;;11.85;3.40;;;0.30;99.90;;;;;;5016827;28;20034;-69
2022/01/21 05:00:27;;;;;;;12.68;3.28;;;0.30;99.90;;;;;;5024323;28;20036;-68
2022/01/21 05:02:53;;;;;;;11.60;3.70;;;0.30;99.90;;;;;;5012025;28;20032;-68
2022/01/21 05:05:19;;;;;;;16.60;3.80;;;0.30;99.90;;;;;;5001074;28;20033;-69
2022/01/21 05:07:44;;;;;;;10.45;3.55;;;0.30;99.90;;;;;;5001011;28;20393;-69
2022/01/21 05:10:10;;;;;;;13.70;4.13;;;0.30;99.90;;;;;;5009064;28;20093;-69
2022/01/21 05:12:37;;;;;;;15.10;4.13;;;0.30;99.90;;;;;;5026763;28;20022;-69
2022/01/21 05:17:31;;;;;;;8.20;3.72;;;0.40;99.90;;;;;;5024378;28;20021;-69
2022/01/21 05:19:56;;;;;;;14.40;4.15;;;0.30;99.90;;;;;;5007081;28;20021;-69
2022/01/21 05:22:22;;;;;;;13.98;4.18;;;0.30;99.90;;;;;;5004316;28;20135;-69
2022/01/21 05:24:49;;;;;;;15.43;4.68;;;0.30;99.90;;;;;;5034283;22;20044;-67
2022/01/21 05:27:16;;;;;;;13.00;4.28;;;0.40;99.90;;;;;;5066755;28;20087;-67
2022/01/21 05:29:42;;;;;;;7.60;4.03;;;0.40;99.90;;;;;;5069038;28;20033;-67
2022/01/21 05:32:08;;;;;;;15.98;4.50;;;0.40;99.90;;;;;;5071717;28;20112;-67
2022/01/21 05:34:34;;;;;;;12.85;4.70;;;0.40;99.90;;;;;;5060796;28;20120;-67
2022/01/21 05:37:00;;;;;;;9.75;4.07;;;0.40;99.90;;;;;;5060215;28;20028;-67
2022/01/21 05:39:26;;;;;;;10.60;4.65;;;0.40;99.90;;;;;;5071420;28;20029;-67
2022/01/21 05:41:53;;;;;;;12.07;4.35;;;0.30;99.90;;;;;;5062289;28;20498;-67
2022/01/21 05:46:59;;;;;;;10.68;4.60;;;0.30;99.90;;;;;;5070467;28;20025;-67
2022/01/21 05:49:26;;;;;;;13.60;4.30;;;0.30;99.90;;;;;;5065930;28;20032;-66
2022/01/21 05:52:00;;;;;;;12.57;4.15;;;0.40;99.90;;;;;;5061238;28;20373;-67
2022/01/21 05:54:26;;;;;;;11.52;3.97;;;0.40;99.90;;;;;;5058544;28;20752;-67
2022/01/21 05:56:52;;;;;;;15.05;3.80;;;0.40;99.90;;;;;;5066275;28;20028;-67
2022/01/21 05:59:18;;;;;;;11.32;3.72;;;0.40;99.90;;;;;;5068811;28;20024;-67
2022/01/21 06:01:43;;;;;;;11.25;3.95;;;0.40;99.90;;;;;;5070502;28;20482;-67
2022/01/21 06:04:09;;;;;;;13.90;4.65;;;0.40;99.90;;;;;;5070367;28;20454;-67
2022/01/21 06:06:35;;;;;;;9.10;4.03;;;0.50;99.90;;;;;;5071899;28;20710;-67
2022/01/21 06:09:03;;;;;;;12.75;4.40;;;0.50;99.90;;;;;;5069026;28;20076;-67
2022/01/21 06:11:28;;;;;;;17.13;4.40;;;0.50;99.90;;;;;;5070348;28;20397;-67
2022/01/21 06:13:54;;;;;;;13.75;4.40;;;0.50;99.90;;;;;;5069232;28;20025;-67
2022/01/21 06:16:20;;;;;;;18.15;4.57;;;0.50;99.90;;;;;;5069329;28;20529;-68
2022/01/21 06:18:46;;;;;;;9.23;4.35;;;0.50;99.90;;;;;;5055941;28;20128;-68
2022/01/21 06:21:12;;;;;;;11.60;4.57;;;0.50;99.90;;;;;;5065806;28;20081;-68
2022/01/21 06:23:38;;;;;;;12.82;4.22;;;0.50;99.90;;;;;;5062642;28;20029;-68
2022/01/21 06:26:04;;;;;;;13.18;4.20;;;0.50;99.90;;;;;;5061798;28;20116;-67
2022/01/21 06:28:30;;;;;;;15.20;4.63;;;0.50;99.90;;;;;;5053031;28;20082;-67
2022/01/21 06:30:56;;;;;;;15.95;4.63;;;0.50;99.90;;;;;;5070177;28;20468;-67
2022/01/21 06:33:22;;;;;;;11.73;4.18;;;0.50;99.90;;;;;;5069482;28;20020;-66
2022/01/21 06:35:49;;;;;;;11.80;4.88;;;0.40;99.90;;;;;;5082860;28;20036;-64
2022/01/21 06:38:15;;;;;;;12.35;4.40;;;0.40;99.90;;;;;;5060314;28;20024;-68
2022/01/21 06:40:40;;;;;;;10.75;4.13;;;0.40;99.90;;;;;;5060963;28;20503;-68
2022/01/21 06:43:07;;;;;;;17.98;4.20;;;0.40;99.90;;;;;;5066545;28;20119;-68
2022/01/21 06:45:32;;;;;;;14.18;4.63;;;0.40;99.90;;;;;;5064439;28;20028;-68
2022/01/21 06:47:58;;;;;;;12.15;4.68;;;0.40;99.90;;;;;;5063616;28;20095;-68
2022/01/21 06:50:32;;;;;;;15.02;4.05;;;0.30;99.90;;;;;;5070767;28;20077;-68
2022/01/21 06:52:58;;;;;;;14.05;4.72;;;0.30;99.90;;;;;;5063381;28;20021;-67
2022/01/21 06:55:24;;;;;;;14.48;3.97;;;0.30;99.90;;;;;;5050812;28;20404;-67
2022/01/21 06:57:49;;;;;;;16.15;4.18;;;0.30;99.90;;;;;;5068317;28;20024;-67
2022/01/21 07:00:18;;;;;;;9.18;3.60;;;0.20;99.90;;;;;;5069103;28;20020;-67
2022/01/21 07:02:45;;;;;;;13.88;5.25;;;0.20;99.90;;;;;;5070278;28;20032;-68
2022/01/21 07:05:11;;;;;;;14.48;4.40;;;0.20;99.90;;;;;;5070477;28;20039;-67
2022/01/21 07:07:37;;;;;;;13.88;4.28;;;0.30;99.90;;;;;;5066309;28;20025;-68
2022/01/21 07:10:06;;;;;;;12.60;5.18;;;0.20;99.90;;;;;;5069495;28;20032;-68
2022/01/21 07:12:32;;;;;;;9.27;4.28;;;0.20;99.90;;;;;;5069935;28;20074;-68
2022/01/21 07:14:58;;;;;;;13.55;4.28;;;0.20;99.90;;;;;;5070280;28;20107;-68
2022/01/21 07:17:24;;;;;;;9.70;4.18;;;0.20;99.90;;;;;;5067851;28;20461;-68
2022/01/21 07:19:49;;;;;;;13.55;4.13;;;0.20;99.90;;;;;;5068648;28;20032;-68
2022/01/21 07:22:15;;;;;;;10.63;4.55;;;0.20;99.90;;;;;;5069286;28;20024;-68
2022/01/21 07:24:41;;;;;;;10.98;4.40;;;0.20;99.90;;;;;;5067577;28;20021;-68
2022/01/21 07:27:06;;;;;;;16.30;4.55;;;0.20;99.90;;;;;;5059774;28;20032;-68
2022/01/21 07:29:32;;;;;;;10.10;4.22;;;0.20;99.90;;;;;;5067317;28;20036;-68
2022/01/21 07:31:58;;;;;;;13.88;4.70;;;0.20;99.90;;;;;;5069287;28;20020;-68
2022/01/21 07:34:25;;;;;;;8.70;4.15;;;0.20;99.90;;;;;;5069034;28;20165;-69
2022/01/21 07:36:55;;;;;;;12.02;4.38;;;0.30;99.90;;;;;;5055567;28;20040;-66
2022/01/21 07:39:22;;;;;;;11.15;4.18;;;0.30;99.90;;;;;;5060593;28;20254;-68
2022/01/21 07:41:51;;;;;;;9.48;4.28;;;0.30;99.90;;;;;;5068624;28;20173;-67
2022/01/21 07:44:19;;;;;;;9.20;4.15;;;0.40;99.90;;;;;;5068999;28;20067;-68
2022/01/21 07:46:49;;;;;;;10.18;4.70;;;0.40;99.90;;;;;;5071848;28;20025;-68
2022/01/21 07:49:24;;;;;;;15.05;5.38;;;0.40;99.90;;;;;;5061917;28;20131;-69
2022/01/21 07:52:01;;;;;;;12.25;4.95;;;0.40;99.90;;;;;;5069114;28;20024;-66
2022/01/21 07:54:42;;;;;;;14.63;4.80;;;0.50;99.90;;;;;;5074590;28;20025;-66
2022/01/21 07:57:11;;;;;;;11.93;3.88;;;0.60;99.90;;;;;;5063023;28;20053;-68
2022/01/21 07:59:41;;;;;;;12.27;4.38;;;0.70;99.90;;;;;;5064337;28;20052;-66
2022/01/21 08:02:10;;;;;;;16.55;4.50;;;0.70;99.90;;;;;;5073474;28;20452;-66
2022/01/21 08:04:38;;;;;;;10.68;4.45;;;0.70;99.90;;;;;;5074719;28;20388;-66
2022/01/21 08:07:09;;;;;;;15.65;4.93;;;0.70;99.90;;;;;;5072910;28;20115;-68
2022/01/21 08:09:37;;;;;;;19.02;4.63;;;0.70;99.90;;;;;;5086847;28;20078;-68
2022/01/21 08:12:06;;;;;;;10.43;3.95;;;0.60;99.90;;;;;;5071357;28;20029;-68
2022/01/21 08:14:37;;;;;;;15.18;4.53;;;0.70;99.90;;;;;;5067940;28;20023;-68
2022/01/21 08:17:03;;;;;;;14.70;4.60;;;0.70;99.90;;;;;;5072735;28;20025;-68
2022/01/21 08:19:32;;;;;;;18.80;4.57;;;0.70;99.90;;;;;;5088690;28;20027;-68
2022/01/21 08:22:00;;;;;;;15.27;3.72;;;0.70;99.90;;;;;;5072102;28;20035;-68
2022/01/21 08:24:29;;;;;;;12.68;4.38;;;0.70;99.90;;;;;;5072582;28;20549;-67
2022/01/21 08:26:58;;;;;;;12.30;4.60;;;0.70;99.90;;;;;;5069794;28;20457;-67
2022/01/21 08:29:24;;;;;;;20.98;4.43;;;0.70;99.90;;;;;;5071941;28;20032;-68
2022/01/21 08:32:00;;;;;;;18.17;4.28;;;0.80;99.90;;;;;;5062090;28;20029;-68
2022/01/21 08:34:39;;;;;;;10.65;3.55;;;0.90;99.90;;;;;;5053391;28;20079;-68
2022/01/21 08:37:07;;;;;;;14.82;4.60;;;1.00;99.90;;;;;;5060433;28;20560;-68
2022/01/21 08:39:36;;;;;;;13.95;3.83;;;1.10;99.90;;;;;;5072553;28;20032;-68
2022/01/21 08:42:03;;;;;;;6.82;3.40;;;1.10;99.90;;;;;;5067513;28;20032;-68
2022/01/21 08:44:29;;;;;;;11.30;3.60;;;1.20;99.90;;;;;;5060607;28;20075;-68
2022/01/21 08:47:00;;;;;;;9.98;3.67;;;1.30;99.90;;;;;;5070809;28;20056;-68
2022/01/21 08:49:27;;;;;;;9.10;3.72;;;1.40;99.90;;;;;;5075458;28;20046;-68
2022/01/21 08:51:55;;;;;;;7.63;3.70;;;1.40;99.90;;;;;;5070576;28;20031;-68
2022/01/21 08:54:25;;;;;;;10.40;3.60;;;1.50;99.90;;;;;;5072357;28;20040;-68
2022/01/21 08:57:04;;;;;;;11.20;3.55;;;1.50;99.90;;;;;;5069980;28;20607;-69
2022/01/21 08:59:31;;;;;;;10.63;3.85;;;1.50;99.90;;;;;;5061967;28;20060;-66
2022/01/21 09:02:02;;;;;;;12.35;2.97;;;1.60;99.90;;;;;;5056889;28;20115;-66
2022/01/21 09:04:47;;;;;;;7.63;3.13;;;1.60;99.90;;;;;;5066606;28;20051;-68
2022/01/21 09:07:16;;;;;;;16.33;3.95;;;1.60;99.90;;;;;;5053834;28;20036;-68
2022/01/21 09:09:45;;;;;;;10.40;3.38;;;1.60;99.90;;;;;;5063310;28;20697;-68
2022/01/21 09:12:11;;;;;;;9.85;3.75;;;1.60;99.90;;;;;;5071340;28;20107;-69
2022/01/21 09:14:37;;;;;;;12.63;3.60;;;1.60;99.90;;;;;;5071952;28;20112;-69
2022/01/21 09:17:05;;;;;;;11.43;3.83;;;1.60;99.90;;;;;;5071530;28;20025;-69
2022/01/21 09:19:36;;;;;;;10.20;3.40;;;1.60;99.90;;;;;;5066098;28;20472;-70
2022/01/21 09:22:03;;;;;;;7.70;4.03;;;1.60;99.90;;;;;;5072378;28;20032;-70
2022/01/21 09:24:35;;;;;;;20.00;4.22;;;1.60;99.90;;;;;;5071688;28;20131;-69
2022/01/21 09:27:04;;;;;;;13.70;3.92;;;1.60;99.90;;;;;;5066477;28;20473;-69
2022/01/21 09:29:34;;;;;;;9.68;4.22;;;1.50;99.90;;;;;;5066216;28;20029;-67
2022/01/21 09:32:07;;;;;;;14.48;4.13;;;1.50;99.90;;;;;;5060628;28;20025;-67
2022/01/21 09:34:43;;;;;;;;;;;1.50;99.90;;;;;;5067804;28;20020;-68
2022/01/21 09:37:14;;;;;;;14.48;3.55;;;1.50;99.90;;;;;;5066913;28;20025;-68
2022/01/21 09:39:45;;;;;;;13.93;4.10;;;1.50;99.90;;;;;;5068420;28;20024;-69
2022/01/21 09:42:27;;;;;;;9.90;3.88;;;1.50;99.90;;;;;;5071692;28;20064;-68
2022/01/21 09:45:07;;;;;;;9.85;3.78;;;1.60;99.90;;;;;;5063155;28;20032;-68
2022/01/21 09:47:43;;;;;;;10.63;3.67;;;1.60;99.90;;;;;;5070079;28;20037;-68
2022/01/21 09:50:10;;;;;;;10.85;4.15;;;1.70;99.90;;;;;;5070795;28;20040;-68
2022/01/21 09:52:46;;;;;;;12.50;4.35;;;1.70;99.90;;;;;;5070092;28;20024;-69
2022/01/21 09:55:17;;;;;;;10.35;4.35;;;1.70;99.90;;;;;;5070290;28;20648;-68
2022/01/21 09:57:58;;;;;;;9.23;3.90;;;1.70;99.90;;;;;;5069743;28;20052;-68
2022/01/21 10:00:33;;;;;;;11.27;4.53;;;1.70;99.90;;;;;;5068930;28;20028;-68
2022/01/21 10:03:08;;;;;;;15.85;4.57;;;1.60;99.90;;;;;;5070457;28;20082;-68
2022/01/21 10:05:49;;;;;;;8.30;4.00;;;1.60;99.90;;;;;;5070968;28;20055;-69
2022/01/21 10:08:18;;;;;;;12.80;4.60;;;1.60;99.90;;;;;;5069440;28;20056;-68
2022/01/21 10:10:44;;;;;;;16.30;4.45;;;1.50;99.90;;;;;;5071383;28;20033;-69
2022/01/21 10:13:20;;;;;;;15.27;4.15;;;1.50;99.90;;;;;;5070147;28;20111;-68
2022/01/21 10:15:49;;;;;;;16.45;6.05;;;1.50;99.90;;;;;;5070694;28;20054;-68
2022/01/21 10:18:22;;;;;;;21.40;8.40;;;1.50;99.90;;;;;;5070240;28;20020;-69
2022/01/21 10:21:01;;;;;;;12.25;4.90;;;1.50;99.90;;;;;;5071574;28;20044;-69
2022/01/21 10:23:29;;;;;;;9.07;4.65;;;1.50;99.90;;;;;;5070720;28;20037;-68
2022/01/21 10:26:04;;;;;;;10.60;4.30;;;1.50;99.90;;;;;;5069820;28;20028;-68
2022/01/21 10:28:54;;;;;;;13.00;5.00;;;1.50;99.90;;;;;;5063266;28;20028;-68
2022/01/21 10:31:24;;;;;;;15.43;5.28;;;1.60;99.90;;;;;;5062017;28;20476;-68
2022/01/21 10:34:02;;;;;;;13.35;5.80;;;1.50;99.90;;;;;;5070151;28;20477;-68
2022/01/21 10:36:34;;;;;;;27.38;9.75;;;1.50;99.90;;;;;;5069943;28;20394;-68
2022/01/21 10:39:28;;;;;;;16.33;5.85;;;1.50;99.90;;;;;;5070851;28;20153;-68
2022/01/21 10:41:56;;;;;;;18.10;6.93;;;1.50;99.90;;;;;;5068308;28;20037;-69
2022/01/21 10:44:30;;;;;;;17.90;8.10;;;1.50;99.90;;;;;;5070394;28;20036;-68
2022/01/21 10:47:27;;;;;;;19.55;7.05;;;1.50;99.90;;;;;;5069770;28;20120;-68
2022/01/21 10:50:14;;;;;;;15.63;6.57;;;1.50;99.90;;;;;;5064569;28;20029;-68
2022/01/21 10:52:51;;;;;;;13.65;5.60;;;1.50;99.90;;;;;;5069280;28;20028;-68
2022/01/21 10:55:41;;;;;;;10.10;5.68;;;1.50;99.90;;;;;;5068990;28;20028;-68
2022/01/21 10:58:17;;;;;;;17.77;6.63;;;1.60;99.90;;;;;;5054102;28;20484;-69
2022/01/21 11:01:11;;;;;;;11.68;5.32;;;1.60;99.90;;;;;;5065605;28;20562;-69
2022/01/21 11:04:12;;;;;;;15.30;5.30;;;1.60;99.90;;;;;;5064837;28;20063;-68
2022/01/21 11:06:56;;;;;;;16.95;5.55;;;1.70;99.90;;;;;;5074316;28;20033;-69
2022/01/21 11:09:42;;;;;;;12.65;5.18;;;1.70;99.90;;;;;;5064681;28;20036;-69
2022/01/21 11:12:19;;;;;;;10.88;5.20;;;1.80;99.90;;;;;;5066588;28;20130;-69
2022/01/21 11:15:10;;;;;;;12.40;4.85;;;1.80;99.90;;;;;;5065539;28;20024;-68
2022/01/21 11:17:59;;;;;;;13.55;5.40;;;1.80;99.90;;;;;;5064435;28;20032;-68
2022/01/21 11:20:35;;;;;;;14.02;5.03;;;1.80;99.90;;;;;;5054634;28;20024;-69
2022/01/21 11:23:07;;;;;;;15.80;5.57;;;1.80;99.90;;;;;;5066730;28;20029;-69
2022/01/21 11:26:03;;;;;;;17.20;5.72;;;1.80;99.90;;;;;;5065962;28;20040;-69
2022/01/21 11:28:46;;;;;;;16.45;5.00;;;1.80;99.90;;;;;;5063115;28;20060;-69
2022/01/21 11:31:27;;;;;;;14.77;5.35;;;1.80;99.90;;;;;;5066518;28;20059;-69
2022/01/21 11:33:55;;;;;;;9.65;4.55;;;1.90;99.90;;;;;;5066410;28;20108;-69
2022/01/21 11:36:21;;;;;;;16.85;5.57;;;1.90;99.90;;;;;;5066676;28;20040;-68
2022/01/21 11:38:54;;;;;;;13.07;5.65;;;1.90;99.90;;;;;;5066613;28;20074;-69
2022/01/21 11:41:24;;;;;;;8.82;4.57;;;1.90;99.90;;;;;;5066895;28;20028;-68
2022/01/21 11:44:01;;;;;;;11.18;5.00;;;1.90;99.90;;;;;;5066185;28;20112;-69
2022/01/21 11:46:47;;;;;;;9.57;4.88;;;1.90;99.90;;;;;;5066242;28;20063;-68
2022/01/21 11:49:19;;;;;;;11.10;4.75;;;1.90;99.90;;;;;;5063065;28;20044;-68
2022/01/21 11:52:06;;;;;;;10.45;5.00;;;1.90;99.90;;;;;;5066244;28;20028;-69
2022/01/21 11:54:38;;;;;;;14.93;5.05;;;1.90;99.90;;;;;;5065412;28;20509;-70
2022/01/21 11:57:07;;;;;;;18.87;4.93;;;1.80;99.90;;;;;;5066289;28;20396;-69
2022/01/21 11:59:53;;;;;;;14.40;5.10;;;1.80;99.90;;;;;;5065951;28;20031;-68
2022/01/21 12:02:26;;;;;;;13.55;4.68;;;1.80;99.90;;;;;;5066605;28;20472;-68
2022/01/21 12:05:10;;;;;;;10.25;4.60;;;1.80;99.90;;;;;;5059339;28;20405;-68
2022/01/21 12:07:45;;;;;;;15.65;5.63;;;1.80;99.90;;;;;;5061379;28;20032;-69
2022/01/21 12:10:34;;;;;;;12.75;5.10;;;1.80;99.90;;;;;;5066151;28;20039;-69
2022/01/21 12:13:05;;;;;;;15.05;5.18;;;1.80;99.90;;;;;;5082391;28;20040;-69
2022/01/21 12:16:17;;;;;;;11.10;5.13;;;1.80;99.90;;;;;;5065746;28;20143;-69
2022/01/21 12:19:17;;;;;;;11.23;5.00;;;1.80;99.90;;;;;;5066126;28;20040;-69
2022/01/21 12:21:48;;;;;;;16.27;5.95;;;1.80;99.90;;;;;;5060067;28;20059;-68
2022/01/21 12:24:16;;;;;;;12.48;5.20;;;1.70;99.90;;;;;;5066520;28;20024;-69
2022/01/21 12:26:58;;;;;;;14.65;5.05;;;1.70;99.90;;;;;;5058063;28;21605;-69
2022/01/21 12:29:37;;;;;;;10.23;4.88;;;1.70;99.90;;;;;;5063812;28;20400;-69
2022/01/21 12:32:20;;;;;;;10.93;5.05;;;1.70;99.90;;;;;;5053838;28;20044;-68
2022/01/21 12:35:11;;;;;;;10.05;4.25;;;1.70;99.90;;;;;;5071722;28;20393;-69
2022/01/21 12:37:53;;;;;;;11.95;4.93;;;1.70;99.90;;;;;;5072324;28;20025;-68
2022/01/21 12:40:33;;;;;;;14.13;4.15;;;1.70;99.90;;;;;;5081047;22;20041;-70
2022/01/21 12:42:59;;;;;;;9.63;3.92;;;1.80;99.90;;;;;;5059715;28;20510;-70
2022/01/21 12:45:25;;;;;;;15.07;4.10;;;1.70;99.90;;;;;;5058583;28;20064;-70
2022/01/21 12:47:51;;;;;;;16.17;4.95;;;1.70;99.90;;;;;;5046018;28;20065;-68
2022/01/21 12:53:07;;;;;;;11.88;4.90;;;1.80;99.90;;;;;;5074332;28;20029;-70
2022/01/21 12:55:58;;;;;;;9.13;4.40;;;1.80;99.90;;;;;;5056353;28;20024;-69
2022/01/21 12:58:29;;;;;;;13.43;4.50;;;1.90;99.90;;;;;;5036166;28;20033;-70
2022/01/21 13:00:56;;;;;;;12.13;4.60;;;1.90;99.90;;;;;;5056427;28;20392;-70
2022/01/21 13:03:35;;;;;;;15.75;5.90;;;1.90;99.90;;;;;;5056169;28;20063;-70
2022/01/21 13:06:18;;;;;;;13.27;4.90;;;1.90;99.90;;;;;;5055875;28;20042;-71
2022/01/21 13:09:10;;;;;;;11.65;7.00;;;1.90;99.90;;;;;;5055294;28;20017;-71
2022/01/21 13:11:40;;;;;;;12.40;4.63;;;1.90;99.90;;;;;;5065731;28;20028;-70
2022/01/21 13:14:24;;;;;;;14.30;4.63;;;1.90;99.90;;;;;;5062743;28;20071;-70
2022/01/21 13:17:09;;;;;;;12.10;4.30;;;1.90;99.90;;;;;;5055712;28;20020;-70
2022/01/21 13:19:52;;;;;;;9.85;4.45;;;1.90;99.90;;;;;;5055978;28;20116;-71
2022/01/21 13:22:29;;;;;;;9.63;4.15;;;1.90;99.90;;;;;;5055857;28;20105;-70
2022/01/21 13:25:05;;;;;;;13.30;4.30;;;1.90;99.90;;;;;;5055813;28;20056;-70
2022/01/21 13:27:33;;;;;;;13.93;4.35;;;1.90;99.90;;;;;;5044660;28;20035;-70
2022/01/21 13:30:01;;;;;;;10.18;4.40;;;1.90;99.90;;;;;;5055501;28;20032;-68
2022/01/21 13:32:27;;;;;;;14.68;4.47;;;1.90;99.90;;;;;;5055165;28;20020;-67
2022/01/21 13:35:09;;;;;;;14.90;4.53;;;1.90;99.90;;;;;;5055434;28;20035;-68
2022/01/21 13:37:35;;;;;;;14.13;4.45;;;1.90;99.90;;;;;;5035054;28;20389;-68
2022/01/21 13:40:01;;;;;;;12.18;4.70;;;1.90;99.90;;;;;;5040463;28;20563;-68
2022/01/21 13:42:28;;;;;;;13.43;5.07;;;1.80;99.90;;;;;;5064335;28;20034;-68
2022/01/21 13:45:05;;;;;;;10.63;4.78;;;1.90;99.90;;;;;;5075227;28;20031;-66
2022/01/21 13:47:38;;;;;;;10.10;4.55;;;1.90;99.90;;;;;;5054316;28;20043;-68
2022/01/21 13:50:22;;;;;;;11.38;4.20;;;1.90;99.90;;;;;;5055399;28;20028;-67
2022/01/21 13:52:51;;;;;;;12.88;4.07;;;1.90;99.90;;;;;;5055194;28;20498;-67
2022/01/21 13:55:41;;;;;;;10.57;4.28;;;1.90;99.90;;;;;;5054832;28;20447;-67
2022/01/21 13:58:16;;;;;;;14.98;4.10;;;1.90;99.90;;;;;;5054021;28;20389;-67
2022/01/21 14:00:50;;;;;;;9.70;3.92;;;1.90;99.90;;;;;;5054861;28;20464;-68
2022/01/21 14:03:28;;;;;;;10.73;3.90;;;1.90;99.90;;;;;;5054956;28;20025;-68